Time;durP1;ratioP1;P1;durP2;ratioP2;P2;SDS_P1;SDS_P2;PMS_P1;PMS_P2;Temp;Humidity;BMP_temperature;BMP_pressure;BME280_temperature;BME280_humidity;BME280_pressure;Samples;Min_cycle;Max_cycle;Signal;HPM_P1;HPM_P2
2024/03/08 00:00:54;;;;;;;28.90;20.07;;;1.70;99.90;;;-141.84;70.01;18298.00;5045346;28;20221;-59
2024/03/08 00:03:23;;;;;;;27.90;19.03;;;1.60;99.90;;;-141.84;70.42;18316.28;5048389;28;20205;-59
2024/03/08 00:05:51;;;;;;;28.53;20.07;;;1.60;99.90;;;-141.84;71.06;18302.06;5046298;28;20201;-60
2024/03/08 00:08:21;;;;;;;24.10;18.47;;;1.50;99.90;;;-141.84;71.44;18310.19;5047025;28;20225;-59
2024/03/08 00:10:49;;;;;;;28.07;19.90;;;1.50;99.90;;;-141.84;71.22;18287.84;5048362;28;20591;-60
2024/03/08 00:13:17;;;;;;;29.33;19.47;;;1.40;99.90;;;-141.84;70.06;18308.16;5044636;28;20287;-59
2024/03/08 00:15:46;;;;;;;25.50;19.40;;;1.60;99.90;;;-141.84;69.41;18304.09;5042454;28;20338;-59
2024/03/08 00:18:14;;;;;;;27.07;19.67;;;1.60;99.90;;;-141.84;69.55;18304.09;5044840;28;20282;-59
2024/03/08 00:20:44;;;;;;;26.70;19.57;;;1.60;99.90;;;-141.84;69.76;18322.38;5045151;28;20212;-58
2024/03/08 00:23:13;;;;;;;26.90;20.27;;;1.50;99.90;;;-141.84;69.67;18269.56;5043490;28;20233;-58
2024/03/08 00:25:42;;;;;;;29.80;19.87;;;1.60;99.90;;;-141.84;69.52;18308.16;5045894;28;20255;-58
2024/03/08 00:28:13;;;;;;;27.30;20.07;;;1.60;99.90;;;-141.84;70.57;18298.00;5038902;28;20255;-58
2024/03/08 00:30:42;;;;;;;28.20;20.13;;;1.60;99.90;;;-141.84;70.55;18287.84;5040798;28;20229;-60
2024/03/08 00:33:10;;;;;;;27.93;19.00;;;1.60;99.90;;;-141.84;69.94;18300.03;5047799;28;20197;-59
2024/03/08 00:35:42;;;;;;;27.13;19.67;;;1.60;99.90;;;-141.84;70.32;18267.53;5047876;28;20730;-59
2024/03/08 00:38:11;;;;;;;28.60;19.83;;;1.50;99.90;;;-141.84;69.52;18291.91;5009868;28;20765;-59
2024/03/08 00:40:40;;;;;;;26.43;19.73;;;1.60;99.90;;;-141.84;70.04;18298.00;5045478;28;20309;-59
2024/03/08 00:43:09;;;;;;;25.70;18.77;;;1.50;99.90;;;-141.84;70.48;18340.66;5037503;28;20229;-59
2024/03/08 00:45:38;;;;;;;30.40;20.00;;;1.50;99.90;;;-141.84;70.31;18283.78;5047123;28;20782;-58
2024/03/08 00:48:07;;;;;;;29.70;19.90;;;1.50;99.90;;;-141.84;70.62;18273.63;5047188;28;20197;-58
2024/03/08 00:50:37;;;;;;;29.27;19.77;;;1.50;99.90;;;-141.84;70.20;18304.09;5041155;28;20280;-58
2024/03/08 00:53:05;;;;;;;29.30;19.37;;;1.50;99.90;;;-141.84;70.36;18308.16;5041552;28;20230;-58
2024/03/08 00:55:34;;;;;;;27.47;19.77;;;1.50;99.90;;;-141.84;70.43;18251.28;5049309;28;20782;-57
2024/03/08 00:58:02;;;;;;;24.70;18.80;;;1.50;99.90;;;-141.84;70.08;18265.50;5050303;28;20235;-60
2024/03/08 01:00:33;;;;;;;29.83;20.40;;;1.50;99.90;;;-141.84;70.34;18287.84;5045543;28;20681;-60
2024/03/08 01:03:03;;;;;;;28.60;20.30;;;1.50;99.90;;;-141.84;70.17;18269.56;5052894;28;20674;-57
2024/03/08 01:05:31;;;;;;;28.40;20.13;;;1.50;99.90;;;-141.84;70.32;18277.69;5050387;28;20318;-59
2024/03/08 01:08:00;;;;;;;30.27;19.50;;;1.50;99.90;;;-141.84;70.65;18291.91;5049284;28;20713;-59
2024/03/08 01:10:28;;;;;;;27.33;19.00;;;1.50;99.90;;;-141.84;71.60;18257.38;5043604;28;20694;-56
2024/03/08 01:12:59;;;;;;;29.60;20.37;;;1.40;99.90;;;-141.84;72.16;18273.63;5049662;28;20656;-58
2024/03/08 01:15:27;;;;;;;28.70;20.63;;;1.30;99.90;;;-141.84;72.10;18267.53;5046440;28;20517;-58
2024/03/08 01:17:57;;;;;;;29.40;19.17;;;1.30;99.90;;;-141.84;71.16;18269.56;5042529;28;20309;-58
2024/03/08 01:20:25;;;;;;;27.30;19.27;;;1.40;99.90;;;-141.84;71.12;18263.47;5048472;28;20224;-59
2024/03/08 01:22:56;;;;;;;31.93;20.07;;;1.40;99.90;;;-141.84;70.13;18259.41;5040164;28;20226;-59
2024/03/08 01:25:25;;;;;;;28.53;19.77;;;1.50;99.90;;;-141.84;70.23;18259.41;5044550;28;20216;-57
2024/03/08 01:27:54;;;;;;;26.33;18.87;;;1.50;99.90;;;-141.84;70.99;18289.88;5047613;28;20624;-60
2024/03/08 01:30:23;;;;;;;28.37;19.67;;;1.40;99.90;;;-141.84;70.62;18277.69;5042597;28;20658;-59
2024/03/08 01:32:51;;;;;;;28.27;19.47;;;1.50;99.90;;;-141.84;71.04;18271.59;5044464;28;20658;-59
2024/03/08 01:35:23;;;;;;;30.43;20.40;;;1.40;99.90;;;-141.84;70.52;18293.94;5048162;28;20309;-59
2024/03/08 01:37:51;;;;;;;27.03;18.90;;;1.40;99.90;;;-141.84;71.16;18271.59;5040007;28;20253;-61
2024/03/08 01:40:19;;;;;;;26.63;19.87;;;1.40;99.90;;;-141.84;70.48;18314.25;5047391;28;20221;-59
2024/03/08 01:42:47;;;;;;;30.07;20.17;;;1.50;99.90;;;-141.84;70.60;18259.41;5045637;28;20342;-59
2024/03/08 01:45:16;;;;;;;27.63;19.70;;;1.40;99.90;;;-141.84;71.59;18271.59;5047432;28;20254;-60
2024/03/08 01:47:47;;;;;;;26.03;18.87;;;1.40;99.90;;;-141.84;71.38;18275.66;5051354;28;20194;-59
2024/03/08 01:50:16;;;;;;;28.53;19.70;;;1.40;99.90;;;-141.84;71.75;18257.38;5049988;28;20316;-57
2024/03/08 01:52:46;;;;;;;30.40;19.70;;;1.30;99.90;;;-141.84;71.15;18259.41;5049210;28;20221;-59
2024/03/08 01:55:17;;;;;;;32.17;19.23;;;1.40;99.90;;;-141.84;71.32;18253.31;5041257;28;20630;-60
2024/03/08 01:57:45;;;;;;;26.40;18.57;;;1.40;99.90;;;-141.84;70.88;18295.97;5042188;28;20225;-58
2024/03/08 02:00:16;;;;;;;28.27;19.57;;;1.40;99.90;;;-141.84;71.30;18271.59;5045178;28;20265;-59
2024/03/08 02:02:52;;;;;;;27.13;19.20;;;1.40;99.90;;;-141.84;70.98;18277.69;5045985;28;20209;-58
2024/03/08 02:05:23;;;;;;;27.90;18.37;;;1.40;99.90;;;-141.84;71.26;18261.44;5045936;28;20212;-58
2024/03/08 02:07:53;;;;;;;26.50;19.57;;;1.40;99.90;;;-141.84;71.80;18273.63;5037532;28;20743;-59
2024/03/08 02:10:22;;;;;;;30.33;19.27;;;1.40;99.90;;;-141.84;71.48;18269.56;5043565;28;20672;-60
2024/03/08 02:12:51;;;;;;;27.67;19.37;;;1.40;99.90;;;-141.84;71.75;18271.59;5050012;28;20225;-58
2024/03/08 02:15:21;;;;;;;29.87;19.47;;;1.30;99.90;;;-141.84;72.32;18310.19;5048105;28;20652;-59
2024/03/08 02:17:49;;;;;;;27.33;19.07;;;1.30;99.90;;;-141.84;72.99;18275.66;5043903;28;20233;-59
2024/03/08 02:20:19;;;;;;;27.20;18.80;;;1.20;99.90;;;-141.84;72.69;18261.44;5044907;28;20265;-60
2024/03/08 02:22:50;;;;;;;25.27;18.03;;;1.40;99.90;;;-141.84;72.22;18261.44;5043608;28;20218;-59
2024/03/08 02:25:20;;;;;;;25.43;18.47;;;1.20;99.90;;;-141.84;72.80;18275.66;5043344;28;20547;-59
2024/03/08 02:27:49;;;;;;;29.37;18.97;;;1.20;99.90;;;-141.84;73.68;18295.97;5047592;28;20218;-60
2024/03/08 02:30:17;;;;;;;27.97;19.30;;;1.10;99.90;;;-141.84;74.01;18255.34;5034640;28;20615;-58
2024/03/08 02:32:45;;;;;;;29.23;19.20;;;1.10;99.90;;;-141.84;74.58;18291.91;5040515;28;20227;-59
2024/03/08 02:35:14;;;;;;;26.73;19.53;;;1.00;99.90;;;-141.84;74.85;18285.81;5048438;28;20232;-58
2024/03/08 02:37:43;;;;;;;27.80;20.03;;;1.00;99.90;;;-141.84;75.21;18267.53;5046150;28;20271;-58
2024/03/08 02:40:13;;;;;;;27.80;18.63;;;0.90;99.90;;;-141.84;74.13;18285.81;5044724;28;20313;-59
2024/03/08 02:42:41;;;;;;;27.40;18.37;;;1.00;99.90;;;-141.84;74.67;18265.50;5045977;28;21383;-58
2024/03/08 02:45:10;;;;;;;27.70;19.37;;;1.00;99.90;;;-141.84;75.66;18281.75;5044103;28;20248;-60
2024/03/08 02:47:39;;;;;;;29.07;20.20;;;0.90;99.90;;;-141.84;76.26;18308.16;5050297;28;20209;-59
2024/03/08 02:50:09;;;;;;;27.47;19.77;;;0.80;99.90;;;-141.84;75.98;18306.13;5047227;28;21550;-59
2024/03/08 02:52:38;;;;;;;28.77;19.73;;;0.80;99.90;;;-141.84;76.37;18289.88;5045258;28;20221;-58
2024/03/08 02:55:10;;;;;;;31.10;20.53;;;0.80;99.90;;;-141.84;76.41;18285.81;5041576;28;20240;-59
2024/03/08 02:57:47;;;;;;;27.43;18.73;;;0.80;99.90;;;-141.84;76.75;18302.06;5042415;28;20220;-59
2024/03/08 03:00:16;;;;;;;28.97;19.20;;;0.80;99.90;;;-141.84;77.60;18322.38;5032007;28;20209;-65
2024/03/08 03:02:44;;;;;;;30.13;19.50;;;0.70;99.90;;;-141.84;78.29;18379.25;5043606;28;20256;-66
2024/03/08 03:05:14;;;;;;;28.63;19.77;;;0.70;99.90;;;-141.84;78.63;18365.03;5044881;28;20275;-65
2024/03/08 03:07:42;;;;;;;28.40;19.50;;;0.70;99.90;;;-141.84;78.63;18358.94;5047407;28;20755;-64
2024/03/08 03:10:12;;;;;;;30.53;20.10;;;0.60;99.90;;;-141.84;79.63;18468.66;5047848;28;20281;-64
2024/03/08 03:12:41;;;;;;;31.17;20.20;;;0.60;99.90;;;-141.84;79.95;18535.69;5047882;28;20701;-64
2024/03/08 03:15:12;;;;;;;29.60;20.10;;;0.50;99.90;;;-141.84;79.78;18497.09;5039417;28;20689;-63
2024/03/08 03:17:41;;;;;;;29.50;19.50;;;0.50;99.90;;;-141.84;79.68;18491.00;5049202;28;20190;-64
2024/03/08 03:20:14;;;;;;;29.07;19.23;;;0.50;99.90;;;-141.84;78.25;18314.25;5047699;28;20235;-65
2024/03/08 03:22:47;;;;;;;31.33;20.27;;;0.50;99.90;;;-141.84;78.60;18338.63;5041461;28;20293;-65
2024/03/08 03:25:19;;;;;;;28.60;20.20;;;0.60;99.90;;;-141.84;78.73;18322.38;5046367;28;20276;-64
2024/03/08 03:27:56;;;;;;;28.30;19.37;;;0.60;99.90;;;-141.84;78.72;18326.44;5043198;28;20224;-65
2024/03/08 03:30:26;;;;;;;28.33;19.20;;;0.60;99.90;;;-141.84;78.36;18273.63;5049270;28;20251;-65
2024/03/08 03:32:56;;;;;;;29.20;18.17;;;0.50;99.90;;;-141.84;77.99;18271.59;5044789;28;20578;-64
2024/03/08 03:35:25;;;;;;;29.23;19.37;;;0.50;99.90;;;-141.84;78.01;18267.53;5042602;28;20308;-64
2024/03/08 03:38:05;;;;;;;30.57;19.83;;;0.50;99.90;;;-141.84;78.66;18340.66;5042970;28;20245;-63
2024/03/08 03:40:34;;;;;;;30.17;19.47;;;0.50;99.90;;;-141.84;79.23;18350.81;5045688;28;20335;-63
2024/03/08 03:43:05;;;;;;;28.03;19.50;;;0.50;99.90;;;-141.84;79.45;18391.44;5049562;28;20221;-64
2024/03/08 03:45:34;;;;;;;30.50;19.87;;;0.40;99.90;;;-141.84;78.36;18298.00;5042963;28;20232;-65
2024/03/08 03:48:08;;;;;;;28.90;19.67;;;0.50;99.90;;;-141.84;78.27;18267.53;5045686;28;20218;-66
2024/03/08 03:50:38;;;;;;;28.93;19.17;;;0.40;99.90;;;-141.84;79.29;18338.63;5051125;28;20275;-67
2024/03/08 03:53:09;;;;;;;27.67;19.50;;;0.40;99.90;;;-141.84;79.88;18468.66;5042855;28;20229;-63
2024/03/08 03:55:39;;;;;;;28.70;19.17;;;0.40;99.90;;;-141.84;79.99;18444.28;5039765;28;20229;-64
2024/03/08 03:58:10;;;;;;;29.10;19.73;;;0.40;99.90;;;-141.84;79.05;18308.16;5045339;28;20257;-63
2024/03/08 04:00:40;;;;;;;30.53;19.40;;;0.40;99.90;;;-141.84;79.42;18389.41;5043863;28;20232;-63
2024/03/08 04:03:09;;;;;;;27.13;18.80;;;0.50;99.90;;;-141.84;79.50;18367.06;5045115;28;20194;-63
2024/03/08 04:05:38;;;;;;;30.87;20.00;;;0.40;99.90;;;-141.84;79.93;18440.22;5045964;28;20208;-63
2024/03/08 04:08:06;;;;;;;28.00;18.73;;;0.40;99.90;;;-141.84;79.95;18499.13;5039117;28;20785;-64
2024/03/08 04:10:34;;;;;;;28.77;19.53;;;0.50;99.90;;;-141.84;78.45;18293.94;5045175;28;20645;-65
2024/03/08 04:13:03;;;;;;;30.47;19.20;;;0.50;99.90;;;-141.84;78.45;18267.53;5046817;28;20229;-63
2024/03/08 04:15:33;;;;;;;29.20;18.60;;;0.50;99.90;;;-141.84;78.94;18304.09;5042593;28;20225;-63
2024/03/08 04:18:02;;;;;;;26.83;18.67;;;0.50;99.90;;;-141.84;78.87;18336.59;5045305;28;20243;-60
2024/03/08 04:20:30;;;;;;;27.37;19.07;;;0.50;99.90;;;-141.84;78.86;18320.34;5023231;28;20223;-59
2024/03/08 04:22:58;;;;;;;28.03;19.43;;;0.50;99.90;;;-141.84;79.32;18365.03;5023250;28;20220;-60
2024/03/08 04:25:27;;;;;;;27.63;18.70;;;0.50;99.90;;;-141.84;80.16;18428.03;5038189;28;20704;-58
2024/03/08 04:27:56;;;;;;;27.20;19.70;;;0.40;99.90;;;-141.84;80.71;18543.81;5038123;28;20356;-59
2024/03/08 04:30:24;;;;;;;28.07;18.80;;;0.40;99.90;;;-141.84;81.14;18673.84;5040635;28;20236;-58
2024/03/08 04:32:54;;;;;;;29.23;20.10;;;0.40;99.90;;;-141.84;81.31;18738.88;5049527;28;20529;-60
2024/03/08 04:35:22;;;;;;;28.23;19.10;;;0.40;99.90;;;-141.84;80.34;18493.03;5025112;28;20229;-57
2024/03/08 04:37:50;;;;;;;29.40;19.13;;;0.40;99.90;;;-141.84;80.41;18482.88;5020823;28;20274;-59
2024/03/08 04:40:19;;;;;;;28.80;19.10;;;0.40;99.90;;;-141.84;80.81;18596.66;5022937;28;20228;-59
2024/03/08 04:42:50;;;;;;;31.50;19.47;;;0.40;99.90;;;-141.84;81.65;18844.53;5020220;28;20245;-59
2024/03/08 04:45:19;;;;;;;29.80;20.43;;;0.40;99.90;;;-141.84;78.21;18257.38;5026831;28;20194;-59
2024/03/08 04:47:47;;;;;;;30.13;19.47;;;0.50;99.90;;;-141.84;79.15;18338.63;5027199;28;20674;-59
2024/03/08 04:50:21;;;;;;;27.83;19.03;;;0.50;99.90;;;-141.84;79.31;18360.97;5023433;28;20301;-58
2024/03/08 04:52:49;;;;;;;27.90;19.10;;;0.50;99.90;;;-141.84;80.66;18541.78;5027026;28;20242;-58
2024/03/08 04:55:20;;;;;;;28.83;19.83;;;0.50;99.90;;;-141.84;80.50;18564.13;5020255;28;20230;-59
2024/03/08 04:57:49;;;;;;;28.40;18.97;;;0.50;99.90;;;-141.84;80.76;18549.91;5025345;28;20220;-59
2024/03/08 05:00:19;;;;;;;30.63;20.27;;;0.50;99.90;;;-141.84;81.15;18627.13;5022659;28;20228;-58
2024/03/08 05:02:47;;;;;;;33.13;19.90;;;0.40;99.90;;;-141.84;81.73;18938.00;5030061;28;20202;-59
2024/03/08 05:05:17;;;;;;;31.77;19.77;;;0.40;99.90;;;-141.84;81.23;18696.19;5024946;28;20226;-59
2024/03/08 05:07:46;;;;;;;28.33;19.87;;;0.40;99.90;;;-141.84;81.52;18785.59;5021416;28;20237;-60
2024/03/08 05:10:17;;;;;;;32.37;20.40;;;0.40;99.90;;;-141.84;81.52;18832.34;5023879;28;20670;-59
2024/03/08 05:12:50;;;;;;;31.30;20.30;;;0.40;99.90;;;-141.84;81.06;18643.38;5020380;28;20228;-59
2024/03/08 05:15:21;;;;;;;28.27;19.93;;;;;;;-141.84;81.38;18775.44;5021511;28;20194;-60
2024/03/08 05:17:49;;;;;;;30.87;20.57;;;0.40;99.90;;;-141.84;81.84;18879.06;5026376;28;20199;-58
2024/03/08 05:20:19;;;;;;;31.03;20.53;;;0.30;99.90;;;-141.84;82.38;19179.78;5045963;28;20233;-60
2024/03/08 05:22:47;;;;;;;32.67;20.50;;;0.30;99.90;;;-141.84;82.01;19019.28;5025974;28;20225;-59
2024/03/08 05:25:16;;;;;;;29.63;19.57;;;0.30;99.90;;;-141.84;82.60;19283.44;5035428;28;20279;-57
2024/03/08 05:27:47;;;;;;;29.80;19.40;;;0.30;99.90;;;-141.84;82.99;19533.38;5046103;28;20217;-60
2024/03/08 05:30:21;;;;;;;30.27;20.77;;;0.20;99.90;;;-141.84;82.53;19202.16;5039311;28;20232;-60
2024/03/08 05:32:50;;;;;;;30.00;20.17;;;0.20;99.90;;;-141.84;82.99;19482.56;5052989;28;20287;-58
2024/03/08 05:35:20;;;;;;;31.43;20.07;;;0.20;99.90;;;-141.84;83.82;20283.34;5030785;28;20237;-59
2024/03/08 05:37:48;;;;;;;30.77;20.43;;;0.20;99.90;;;-141.84;84.01;20620.78;5026218;28;20303;-58
2024/03/08 05:40:17;;;;;;;26.83;18.53;;;0.20;99.90;;;-141.84;84.05;20956.19;5024644;28;20236;-60
2024/03/08 05:42:48;;;;;;;29.57;19.80;;;0.20;99.90;;;-141.84;83.25;19817.91;5031999;28;20221;-58
2024/03/08 05:45:16;;;;;;;28.30;20.43;;;0.20;99.90;;;-141.84;82.95;19460.22;5026440;28;20288;-58
2024/03/08 05:47:45;;;;;;;26.87;18.70;;;0.20;99.90;;;-141.84;80.92;18594.63;5020478;28;20209;-58
2024/03/08 05:50:16;;;;;;;31.93;20.50;;;0.30;99.90;;;-141.84;81.29;18663.69;5031450;28;20241;-59
2024/03/08 05:52:47;;;;;;;32.23;20.53;;;0.30;99.90;;;-141.84;81.08;18673.84;5020458;28;20235;-60
2024/03/08 05:55:15;;;;;;;28.07;19.30;;;0.30;99.90;;;-141.84;80.97;18586.50;5026534;28;20245;-64
2024/03/08 05:57:43;;;;;;;29.07;19.27;;;0.30;99.90;;;-141.84;81.04;18598.69;5023991;28;20589;-64
2024/03/08 06:00:15;;;;;;;33.60;20.90;;;0.30;99.90;;;-141.84;81.70;18858.75;5020151;28;20226;-64
2024/03/08 06:02:43;;;;;;;30.00;20.47;;;0.30;99.90;;;-141.84;80.60;18509.28;5022717;28;20201;-64
2024/03/08 06:05:12;;;;;;;33.23;20.70;;;0.40;99.90;;;-141.84;80.80;18616.97;5021140;28;20246;-64
2024/03/08 06:07:41;;;;;;;32.57;20.87;;;0.50;99.90;;;-141.84;79.86;18425.97;5028077;28;20218;-64
2024/03/08 06:10:13;;;;;;;33.20;21.20;;;0.50;99.90;;;-141.84;79.19;18267.53;5018450;28;20223;-64
2024/03/08 06:12:41;;;;;;;31.50;20.73;;;0.50;99.90;;;-141.84;80.18;18444.28;5028301;28;20304;-63
2024/03/08 06:15:14;;;;;;;35.00;21.40;;;0.50;99.90;;;-141.84;79.46;18363.00;5029269;28;20198;-64
2024/03/08 06:17:43;;;;;;;32.63;21.30;;;0.50;99.90;;;-141.84;78.73;18279.72;5028940;28;20701;-58
2024/03/08 06:20:12;;;;;;;33.83;22.00;;;0.60;99.90;;;-141.84;78.71;18273.63;5028252;28;20309;-59
2024/03/08 06:22:42;;;;;;;34.40;21.73;;;0.60;99.90;;;-141.84;78.19;18245.19;5023444;28;20226;-59
2024/03/08 06:25:13;;;;;;;32.50;22.30;;;0.70;99.90;;;-141.84;77.44;18216.72;5030680;28;20229;-59
2024/03/08 06:27:43;;;;;;;33.20;21.93;;;;;;;-141.84;76.74;18127.34;5026796;28;20778;-58
2024/03/08 06:30:15;;;;;;;35.70;21.40;;;0.70;99.90;;;-141.84;76.29;18198.44;5024005;28;20252;-58
2024/03/08 06:32:44;;;;;;;35.30;22.33;;;0.80;99.90;;;-141.84;76.14;18151.72;5025138;28;20201;-58
2024/03/08 06:35:12;;;;;;;31.57;21.53;;;0.80;99.90;;;-141.84;75.36;18131.41;5024599;28;20232;-56
2024/03/08 06:37:43;;;;;;;35.03;21.53;;;0.90;99.90;;;-141.84;75.95;18172.03;5025212;28;20252;-57
2024/03/08 06:40:13;;;;;;;32.17;21.53;;;1.00;99.90;;;-141.84;74.78;18143.59;5020545;28;20556;-58
2024/03/08 06:42:42;;;;;;;29.77;20.67;;;1.10;99.90;;;-141.84;73.94;18125.31;5028517;28;20228;-58
2024/03/08 06:45:12;;;;;;;31.13;21.40;;;1.10;99.90;;;-141.84;74.27;18155.78;5025288;28;20238;-60
2024/03/08 06:47:43;;;;;;;31.37;21.43;;;1.20;99.90;;;-141.84;74.43;18172.03;5020754;28;20551;-59
2024/03/08 06:50:12;;;;;;;30.53;21.40;;;1.30;99.90;;;-141.84;74.12;18141.56;5026611;28;20748;-59
2024/03/08 06:52:42;;;;;;;31.97;21.20;;;;;;;-141.84;74.29;18143.59;5020696;28;20226;-59
2024/03/08 06:55:13;;;;;;;32.17;21.30;;;;;;;-141.84;72.86;18151.72;5023205;28;20230;-60
2024/03/08 06:57:42;;;;;;;30.60;21.07;;;;;;;-141.84;72.76;18143.59;5027942;28;20253;-60
2024/03/08 07:00:18;;;;;;;34.50;19.87;;;;;;;-141.84;71.59;18145.63;5028558;28;20258;-64
2024/03/08 07:02:48;;;;;;;32.43;21.70;;;;;;;-141.84;71.04;18157.81;5023067;28;20202;-64
2024/03/08 07:05:18;;;;;;;34.10;21.90;;;;;;;-141.84;70.83;18176.09;5014492;28;20272;-64
2024/03/08 07:07:50;;;;;;;32.77;21.70;;;;;;;-141.84;71.57;18182.19;5023162;28;20664;-63
2024/03/08 07:10:23;;;;;;;32.80;21.87;;;;;;;-141.84;70.03;18180.16;5027873;28;20236;-58
2024/03/08 07:13:01;;;;;;;30.53;21.13;;;;;;;-141.84;69.57;18165.94;5026833;28;20250;-58
2024/03/08 07:15:40;;;;;;;34.50;22.07;;;;;;;-141.84;69.55;18218.75;5023686;28;20275;-58
2024/03/08 07:18:14;;;;;;;30.80;21.20;;;;;;;-141.84;68.62;18186.25;5020734;28;20748;-59
2024/03/08 07:20:43;;;;;;;30.23;20.77;;;;;;;-141.84;68.54;18251.28;5028511;28;20224;-59
2024/03/08 07:23:45;;;;;;;31.67;21.10;;;;;;;-141.84;67.43;18241.13;5026273;28;20273;-58
2024/03/08 07:26:02;;;;;;;29.63;20.60;;;;;;;-141.84;67.14;18220.78;5016019;28;20234;-60
2024/03/08 07:28:31;;;;;;;31.53;20.93;;;;;;;-141.84;67.78;18216.72;5027548;28;20249;-59
2024/03/08 07:31:13;;;;;;;31.90;21.67;;;;;;;-141.84;67.85;18222.81;5019492;28;20219;-58
2024/03/08 07:33:41;;;;;;;35.00;22.80;;;;;;;-141.84;66.61;18230.94;5025616;28;20249;-59
2024/03/08 07:36:20;;;;;;;30.33;22.00;;;;;;;-141.84;66.34;18249.25;5020436;28;20289;-60
2024/03/08 07:38:49;;;;;;;30.83;22.23;;;;;;;-141.84;66.40;18267.53;5021637;28;20576;-57
2024/03/08 07:41:21;;;;;;;32.83;22.37;;;;;;;-141.84;65.42;18257.38;5019355;28;20228;-58
2024/03/08 07:43:50;;;;;;;31.77;21.30;;;;;;;-141.84;64.40;18239.09;5026585;28;20250;-58
2024/03/08 07:46:19;;;;;;;33.47;21.97;;;;;;;-141.84;63.27;18289.88;5027434;28;20237;-65
2024/03/08 07:48:49;;;;;;;30.13;21.13;;;;;;;-141.84;62.71;18312.22;5022094;28;20280;-64
2024/03/08 07:51:24;;;;;;;31.13;21.67;;;;;;;-141.84;62.63;18289.88;5026357;28;20190;-63
2024/03/08 07:53:55;;;;;;;34.50;21.57;;;;;;;-141.84;62.93;18310.19;5024438;28;20221;-58
2024/03/08 07:56:27;;;;;;;30.70;21.70;;;;;;;-141.84;62.04;18261.44;5031396;28;20289;-64
2024/03/08 07:59:00;;;;;;;32.90;22.40;;;3.50;99.90;;;-141.84;61.78;18338.63;5026788;28;20315;-65
2024/03/08 08:01:33;;;;;;;30.87;21.90;;;;;;;-141.84;61.79;18320.34;5015588;28;20225;-64
2024/03/08 08:04:02;;;;;;;29.87;21.10;;;;;;;-141.84;61.40;18330.50;5021697;28;20230;-58
2024/03/08 08:06:42;;;;;;;29.67;21.30;;;;;;;-141.84;61.56;18306.13;5029400;28;20246;-60
2024/03/08 08:09:14;;;;;;;29.23;20.80;;;;;;;-141.84;61.27;18332.53;5026561;28;20615;-59
2024/03/08 08:11:49;;;;;;;32.17;21.47;;;;;;;-141.84;60.18;18318.31;5027661;28;20224;-57
2024/03/08 08:14:21;;;;;;;30.37;20.87;;;;;;;-141.84;59.80;18308.16;5023037;28;20248;-64
2024/03/08 08:16:57;;;;;;;32.03;22.33;;;;;;;-141.84;60.07;18350.81;5029019;28;20259;-63
2024/03/08 08:19:27;;;;;;;29.13;20.30;;;;;;;-141.84;59.50;18363.00;5027716;28;20730;-65
2024/03/08 08:21:57;;;;;;;29.70;21.63;;;;;;;-141.84;59.34;18346.75;5030569;28;20224;-64
2024/03/08 08:24:30;;;;;;;32.33;21.73;;;;;;;-141.84;59.14;18369.09;5020577;28;20257;-64
2024/03/08 08:27:03;;;;;;;30.30;21.17;;;;;;;-141.84;58.53;18375.19;5025509;28;20228;-57
2024/03/08 08:29:36;;;;;;;33.33;22.73;;;;;;;-141.84;59.15;18367.06;5020524;28;20688;-58
2024/03/08 08:32:07;;;;;;;30.50;21.30;;;;;;;-141.84;59.82;18356.91;5007582;28;20285;-58
2024/03/08 08:34:37;;;;;;;26.60;21.07;;;;;;;-141.84;59.51;18377.22;5022950;28;20231;-59
2024/03/08 08:37:09;;;;;;;30.50;20.73;;;;;;;-141.84;59.09;18391.44;5025791;28;20612;-59
2024/03/08 08:39:39;;;;;;;31.10;22.53;;;;;;;-141.84;57.77;18409.72;5023054;28;20229;-57
2024/03/08 08:42:09;;;;;;;27.70;21.53;;;4.70;99.90;;;-141.84;58.10;18383.31;5022365;28;20300;-58
2024/03/08 08:44:37;;;;;;;32.70;22.10;;;4.90;99.90;;;-141.84;58.14;18395.50;5028687;28;20239;-59
2024/03/08 08:47:06;;;;;;;29.53;20.87;;;5.10;99.90;;;-141.84;56.27;18430.06;5021666;28;20460;-57
2024/03/08 08:49:42;;;;;;;29.87;21.90;;;5.40;99.90;;;-141.84;55.97;18419.88;5017154;28;20221;-60
2024/03/08 08:52:11;;;;;;;29.40;21.90;;;5.30;99.90;;;-141.84;55.88;18432.09;5019751;28;20222;-60
2024/03/08 08:54:45;;;;;;;33.87;24.20;;;5.40;99.90;;;-141.84;56.23;18436.16;5018150;28;20226;-61
2024/03/08 08:57:20;;;;;;;29.53;21.13;;;;;;;-141.84;55.50;18430.06;5025260;28;20681;-61
2024/03/08 08:59:50;;;;;;;30.07;22.17;;;;;;;-141.84;54.90;18432.09;5018277;28;20241;-60
2024/03/08 09:02:20;;;;;;;28.77;21.20;;;;;;;-141.84;54.56;18458.50;5023652;28;20324;-61
2024/03/08 09:04:50;;;;;;;28.20;21.10;;;;;;;-141.84;54.50;18468.66;5028673;28;20221;-61
2024/03/08 09:07:19;;;;;;;27.77;21.07;;;5.70;99.90;;;-141.84;54.62;18468.66;5028707;28;20221;-60
2024/03/08 09:09:47;;;;;;;32.13;22.77;;;5.80;99.90;;;-141.84;54.50;18491.00;5026228;28;20229;-60
2024/03/08 09:12:15;;;;;;;30.17;22.13;;;5.90;99.90;;;-141.84;54.25;18486.94;5025549;28;20220;-60
2024/03/08 09:14:45;;;;;;;30.07;21.97;;;6.00;99.90;;;-141.84;54.17;18480.84;5029999;28;20205;-60
2024/03/08 09:17:17;;;;;;;28.73;21.30;;;6.00;99.90;;;-141.84;53.49;18476.78;5019848;28;20230;-59
2024/03/08 09:19:45;;;;;;;29.37;21.73;;;6.20;99.90;;;-141.84;53.17;18501.16;5024212;28;20253;-60
2024/03/08 09:22:15;;;;;;;30.57;22.00;;;;;;;-141.84;53.48;18505.22;5024916;28;20288;-60
2024/03/08 09:24:46;;;;;;;27.43;21.37;;;;;;;-141.84;53.45;18491.00;5022369;28;20662;-60
2024/03/08 09:27:15;;;;;;;28.30;21.73;;;;;;;-141.84;52.74;18519.44;5023816;28;20198;-59
2024/03/08 09:29:45;;;;;;;31.57;22.50;;;;;;;-141.84;52.25;18551.94;5024029;28;20213;-60
2024/03/08 09:32:13;;;;;;;28.40;21.83;;;6.40;99.90;;;-141.84;51.91;18541.78;5025469;28;20215;-60
2024/03/08 09:34:43;;;;;;;27.43;21.30;;;;;;;-141.84;51.90;18515.38;5019169;28;20251;-60
2024/03/08 09:37:12;;;;;;;29.60;21.23;;;;;;;-141.84;51.62;18523.50;5025306;28;20234;-60
2024/03/08 09:39:41;;;;;;;30.40;21.17;;;6.50;99.90;;;-141.84;51.43;18519.44;5020579;28;20300;-60
2024/03/08 09:42:10;;;;;;;27.87;20.97;;;6.70;99.90;;;-141.84;51.64;18513.34;5020115;28;20459;-60
2024/03/08 09:44:39;;;;;;;27.87;20.20;;;6.70;99.90;;;-141.84;51.64;18539.75;5021448;28;20321;-68
2024/03/08 09:47:13;;;;;;;30.73;21.50;;;;;;;-141.84;51.59;18517.41;5017459;28;20690;-66
2024/03/08 09:49:43;;;;;;;26.53;20.23;;;;;;;-141.84;51.16;18556.00;5024451;28;20199;-65
2024/03/08 09:52:13;;;;;;;29.07;21.50;;;;;;;-141.84;51.04;18525.53;5030556;28;20245;-66
2024/03/08 09:54:44;;;;;;;28.47;21.77;;;;;;;-141.84;50.81;18525.53;5023810;28;20221;-66
2024/03/08 09:57:13;;;;;;;28.37;20.97;;;;;;;-141.84;49.95;18578.38;5019883;28;20312;-62
2024/03/08 09:59:46;;;;;;;30.77;21.33;;;;;;;-141.84;50.01;18580.41;5024365;28;20306;-64
2024/03/08 10:02:20;;;;;;;28.67;20.67;;;;;;;-141.84;50.18;18586.50;5023049;28;20228;-66
2024/03/08 10:04:49;;;;;;;29.17;20.83;;;;;;;-141.84;50.38;18574.28;5024644;28;20552;-64
2024/03/08 10:07:18;;;;;;;29.90;21.20;;;;;;;-141.84;49.84;18586.50;5021084;28;20267;-63
2024/03/08 10:09:50;;;;;;;29.50;22.07;;;;;;;-141.84;49.87;18574.28;5021479;28;20409;-64
2024/03/08 10:12:19;;;;;;;28.80;21.00;;;;;;;-141.84;49.85;18598.69;5029367;28;20228;-63
2024/03/08 10:14:48;;;;;;;28.67;21.40;;;;;;;-141.84;49.31;18594.63;5019518;28;20232;-64
2024/03/08 10:17:18;;;;;;;27.37;20.40;;;;;;;-141.84;49.63;18580.41;5025351;28;20301;-65
2024/03/08 10:19:52;;;;;;;28.00;20.63;;;;;;;-141.84;49.41;18616.97;5029979;28;20252;-66
2024/03/08 10:22:21;;;;;;;31.07;22.03;;;;;;;-141.84;49.17;18598.69;5026430;28;20206;-66
2024/03/08 10:24:50;;;;;;;25.90;19.50;;;;;;;-141.84;48.76;18623.06;5029027;28;20573;-66
2024/03/08 10:27:19;;;;;;;28.73;19.63;;;;;;;-141.84;48.72;18600.72;5026039;28;20245;-61